AIRPORT ID: S34

DATE: 2021-12-01 ZULU TIME: 14.55 LOCAL TIME: 7.55


METAR KS34 011455Z AUTO 00000KT 10SM 15/05 A3006

ALTIMETER: A3006 Q1018

DENSITY ALT: 2900 Ft

WIND DIRECT: 110

WIND SPEED: 3 Gust

WIND CONDITIONS:

VISIBILTY: 10SM 9999M

TEMPERATURE: 59 F 15 C

DEW POINT: 41 F 5 C

HUMID: 51%

LCL: 3,000-5,000 feet

RADIO CHECK: 0

ADVISARIES: 0

GREETINGS: 0

CONVERSATIONS: 0